createdAt,value
2017-07-24T00:00:22.219Z,0
2017-07-24T00:01:02.785Z,0
2017-07-24T00:01:43.393Z,0
2017-07-24T00:02:23.980Z,0
2017-07-24T00:03:04.556Z,0
2017-07-24T00:03:45.130Z,0
2017-07-24T00:04:25.706Z,0
2017-07-24T00:05:06.284Z,0
2017-07-24T00:05:46.851Z,0
2017-07-24T00:06:27.414Z,0
2017-07-24T00:07:07.990Z,0
2017-07-24T00:07:48.562Z,0
2017-07-24T00:08:29.142Z,0
2017-07-24T00:09:09.710Z,0
2017-07-24T00:09:50.272Z,0
2017-07-24T00:10:30.836Z,0
2017-07-24T00:11:11.401Z,0
2017-07-24T00:11:51.983Z,0
2017-07-24T00:12:32.554Z,0
2017-07-24T00:13:13.113Z,0
2017-07-24T00:13:53.704Z,0
2017-07-24T00:14:34.286Z,0
2017-07-24T00:15:14.849Z,0
2017-07-24T00:15:55.414Z,0
2017-07-24T00:16:35.976Z,0
2017-07-24T00:17:16.544Z,0
2017-07-24T00:17:57.111Z,0
2017-07-24T00:18:37.678Z,0
2017-07-24T00:19:18.243Z,0
2017-07-24T00:19:58.815Z,0
2017-07-24T00:20:39.395Z,0
2017-07-24T00:21:19.967Z,0
2017-07-24T00:22:00.571Z,0
2017-07-24T00:22:41.131Z,0
2017-07-24T00:23:21.704Z,0
2017-07-24T00:24:02.274Z,0
2017-07-24T00:24:42.863Z,0
2017-07-24T00:25:23.437Z,0
2017-07-24T00:26:04.024Z,0
2017-07-24T00:26:44.572Z,0
2017-07-24T00:27:25.154Z,0
2017-07-24T00:28:05.725Z,0
2017-07-24T00:28:46.287Z,0
2017-07-24T00:29:26.851Z,0
2017-07-24T00:30:07.417Z,0
2017-07-24T00:30:48.021Z,0
2017-07-24T00:31:28.598Z,0
2017-07-24T00:32:09.168Z,0
2017-07-24T00:32:49.730Z,0
2017-07-24T00:33:30.307Z,0
2017-07-24T00:34:10.876Z,0
2017-07-24T00:34:51.439Z,0
2017-07-24T00:35:32.004Z,0
2017-07-24T00:36:12.573Z,0
2017-07-24T00:36:53.162Z,0
2017-07-24T00:37:33.733Z,0
2017-07-24T00:38:14.296Z,0
2017-07-24T00:38:54.898Z,0
2017-07-24T00:39:35.484Z,0
2017-07-24T00:40:16.052Z,0
2017-07-24T00:40:56.625Z,0
2017-07-24T00:41:37.191Z,0
2017-07-24T00:42:17.787Z,0
2017-07-24T00:42:58.363Z,0
2017-07-24T00:43:38.942Z,0
2017-07-24T00:44:19.529Z,0
2017-07-24T00:45:00.093Z,0
2017-07-24T00:45:40.661Z,0
2017-07-24T00:46:21.240Z,0
2017-07-24T00:47:01.807Z,0
2017-07-24T00:47:42.400Z,0
2017-07-24T00:48:22.995Z,0
2017-07-24T00:49:03.557Z,0
2017-07-24T00:49:44.184Z,0
2017-07-24T00:50:24.746Z,0
2017-07-24T00:51:05.316Z,0
2017-07-24T00:51:45.897Z,0
2017-07-24T00:52:26.460Z,0
2017-07-24T00:53:07.036Z,0
2017-07-24T00:53:47.654Z,0
2017-07-24T00:54:28.228Z,0
2017-07-24T00:55:08.811Z,0
2017-07-24T00:55:49.404Z,0
2017-07-24T00:56:29.989Z,0
2017-07-24T00:57:10.556Z,0
2017-07-24T00:57:51.122Z,0
2017-07-24T00:58:31.694Z,0
2017-07-24T00:59:12.269Z,0
2017-07-24T00:59:52.836Z,0
2017-07-24T01:00:33.404Z,0
2017-07-24T01:01:13.971Z,0
2017-07-24T01:01:54.548Z,0
2017-07-24T01:02:35.133Z,0
2017-07-24T01:03:15.736Z,0
2017-07-24T01:03:56.307Z,0
2017-07-24T01:04:36.893Z,0
2017-07-24T01:05:17.454Z,0
2017-07-24T01:05:58.027Z,0
2017-07-24T01:06:38.616Z,0
2017-07-24T01:07:19.182Z,0
2017-07-24T01:07:59.760Z,0
2017-07-24T01:08:40.328Z,0
2017-07-24T01:09:20.938Z,0
2017-07-24T01:10:01.512Z,0
2017-07-24T01:10:42.070Z,0
2017-07-24T01:11:22.655Z,0
2017-07-24T01:12:03.221Z,0
2017-07-24T01:12:43.811Z,0
2017-07-24T01:13:24.387Z,0
2017-07-24T01:14:04.993Z,0
2017-07-24T01:14:45.575Z,0
2017-07-24T01:15:26.147Z,0
2017-07-24T01:16:06.736Z,0
2017-07-24T01:16:47.298Z,0
2017-07-24T01:17:27.868Z,0
2017-07-24T01:18:08.424Z,0
2017-07-24T01:18:48.993Z,0
2017-07-24T01:19:29.560Z,0
2017-07-24T01:20:10.130Z,0
2017-07-24T01:20:50.719Z,0
2017-07-24T01:21:31.290Z,0
2017-07-24T01:22:11.866Z,0
2017-07-24T01:22:52.444Z,0
2017-07-24T01:23:33.016Z,0
2017-07-24T01:24:13.584Z,0
2017-07-24T01:24:54.166Z,0
2017-07-24T01:25:34.757Z,0
2017-07-24T01:26:15.330Z,0
2017-07-24T01:26:55.898Z,0
2017-07-24T01:27:36.466Z,0
2017-07-24T01:28:17.046Z,0
2017-07-24T01:28:57.642Z,0
2017-07-24T01:29:38.207Z,0
2017-07-24T01:30:18.780Z,0
2017-07-24T01:30:59.350Z,0
2017-07-24T01:31:39.909Z,0
2017-07-24T01:32:20.489Z,0
2017-07-24T01:33:01.060Z,0
2017-07-24T01:33:41.632Z,0
2017-07-24T01:34:22.245Z,0
2017-07-24T01:35:02.820Z,0
2017-07-24T01:35:43.395Z,0
2017-07-24T01:36:23.996Z,0
2017-07-24T01:37:04.560Z,0
2017-07-24T01:37:45.144Z,0
2017-07-24T01:38:25.748Z,0
2017-07-24T01:39:06.328Z,0
2017-07-24T01:39:46.895Z,0
2017-07-24T01:40:27.477Z,0
2017-07-24T01:41:08.055Z,0
2017-07-24T01:41:48.628Z,0
2017-07-24T01:42:29.205Z,0
2017-07-24T01:43:09.772Z,0
2017-07-24T01:43:50.344Z,0
2017-07-24T01:44:30.912Z,0
2017-07-24T01:45:11.476Z,0
2017-07-24T01:45:52.061Z,0
2017-07-24T01:46:32.631Z,0
2017-07-24T01:47:13.222Z,0
2017-07-24T01:47:53.816Z,0
2017-07-24T01:48:34.390Z,0
2017-07-24T01:49:14.953Z,0
2017-07-24T01:49:55.534Z,0
2017-07-24T01:50:36.093Z,0
2017-07-24T01:51:16.676Z,0
2017-07-24T01:51:57.261Z,0
2017-07-24T01:52:37.825Z,0
2017-07-24T01:53:18.428Z,0
2017-07-24T01:53:58.975Z,0
2017-07-24T01:54:39.561Z,0
2017-07-24T01:55:20.129Z,0
2017-07-24T01:56:00.716Z,0
2017-07-24T01:56:41.297Z,0
2017-07-24T01:57:21.881Z,0
2017-07-24T01:58:02.448Z,0
2017-07-24T01:58:43.052Z,0
2017-07-24T01:59:23.643Z,0
2017-07-24T02:00:04.230Z,0
2017-07-24T02:00:44.821Z,0
2017-07-24T02:01:25.395Z,0
2017-07-24T02:02:05.987Z,0
2017-07-24T02:02:46.556Z,0
2017-07-24T02:03:27.134Z,0
2017-07-24T02:04:07.736Z,0
2017-07-24T02:04:48.329Z,0
2017-07-24T02:05:28.893Z,0
2017-07-24T02:06:09.484Z,0
2017-07-24T02:06:50.101Z,0
2017-07-24T02:07:30.669Z,0
2017-07-24T02:08:11.280Z,0
2017-07-24T02:08:51.851Z,0
2017-07-24T02:09:32.418Z,0
2017-07-24T02:10:13.009Z,0
2017-07-24T02:10:53.587Z,0
2017-07-24T02:11:34.155Z,0
2017-07-24T02:12:14.721Z,0
2017-07-24T02:12:55.332Z,0
2017-07-24T02:13:35.905Z,0
2017-07-24T02:14:16.468Z,0
2017-07-24T02:14:57.053Z,0
2017-07-24T02:15:37.630Z,0
2017-07-24T02:16:18.201Z,0
2017-07-24T02:16:58.770Z,0
2017-07-24T02:17:39.382Z,0
2017-07-24T02:18:19.947Z,0
2017-07-24T02:19:00.523Z,0
2017-07-24T02:19:41.090Z,0
2017-07-24T02:20:21.653Z,0
2017-07-24T02:21:02.215Z,0
2017-07-24T02:21:42.808Z,0
2017-07-24T02:22:23.370Z,0
2017-07-24T02:23:03.940Z,0
2017-07-24T02:23:44.514Z,0
2017-07-24T02:24:25.095Z,0
2017-07-24T02:25:05.664Z,0
2017-07-24T02:25:46.238Z,0
2017-07-24T02:26:26.808Z,0
2017-07-24T02:27:07.384Z,0
2017-07-24T02:27:47.956Z,0
2017-07-24T02:28:28.521Z,0
2017-07-24T02:29:09.088Z,0
2017-07-24T02:29:49.675Z,0
2017-07-24T02:30:30.252Z,0
2017-07-24T02:31:10.826Z,0
2017-07-24T02:31:51.393Z,0
2017-07-24T02:32:31.947Z,0
2017-07-24T02:33:12.515Z,0
2017-07-24T02:33:53.089Z,0
2017-07-24T02:34:33.679Z,0
2017-07-24T02:35:14.251Z,0
2017-07-24T02:35:54.821Z,0
2017-07-24T02:36:35.397Z,0
2017-07-24T02:37:16.003Z,0
2017-07-24T02:37:56.571Z,0
2017-07-24T02:38:37.144Z,0
2017-07-24T02:39:17.724Z,0
2017-07-24T02:39:58.290Z,0
2017-07-24T02:40:38.860Z,0
2017-07-24T02:41:19.433Z,0
2017-07-24T02:42:00.002Z,0
2017-07-24T02:42:40.570Z,0
2017-07-24T02:43:21.146Z,0
2017-07-24T02:44:01.705Z,0
2017-07-24T02:44:42.280Z,0
2017-07-24T02:45:22.853Z,0
2017-07-24T02:46:03.441Z,0
2017-07-24T02:46:44.009Z,0
2017-07-24T02:47:24.574Z,0
2017-07-24T02:48:05.156Z,0
2017-07-24T02:48:45.744Z,0
2017-07-24T02:49:26.316Z,0
2017-07-24T02:50:06.886Z,0
2017-07-24T02:50:47.459Z,0
2017-07-24T02:51:28.056Z,0
2017-07-24T02:52:08.625Z,0
2017-07-24T02:52:49.180Z,0
2017-07-24T02:53:29.750Z,0
2017-07-24T02:54:10.319Z,0
2017-07-24T02:54:50.892Z,0
2017-07-24T02:55:31.463Z,0
2017-07-24T02:56:12.061Z,0
2017-07-24T02:56:52.625Z,0
2017-07-24T02:57:33.201Z,0
2017-07-24T02:58:13.765Z,0
2017-07-24T02:58:54.363Z,0
2017-07-24T02:59:34.925Z,0
2017-07-24T03:00:15.526Z,0
2017-07-24T03:00:56.093Z,0
2017-07-24T03:01:36.677Z,0
2017-07-24T03:02:17.258Z,0
2017-07-24T03:02:57.824Z,0
2017-07-24T03:03:38.387Z,0
2017-07-24T03:04:18.953Z,0
2017-07-24T03:04:59.519Z,0
2017-07-24T03:05:40.091Z,0
2017-07-24T03:06:20.666Z,0
2017-07-24T03:07:01.243Z,0
2017-07-24T03:07:41.871Z,0
2017-07-24T03:08:22.435Z,0
2017-07-24T03:09:03.002Z,0
2017-07-24T03:09:43.586Z,0
2017-07-24T03:10:24.166Z,0
2017-07-24T03:11:04.740Z,0
2017-07-24T03:11:45.308Z,0
2017-07-24T03:12:25.878Z,0
2017-07-24T03:13:06.452Z,0
2017-07-24T03:13:47.044Z,0
2017-07-24T03:14:27.612Z,0
2017-07-24T03:15:08.193Z,0
2017-07-24T03:15:48.792Z,0
2017-07-24T03:16:29.366Z,0
2017-07-24T03:17:09.935Z,0
2017-07-24T03:17:50.516Z,0
2017-07-24T03:18:31.092Z,0
2017-07-24T03:19:11.669Z,0
2017-07-24T03:19:52.263Z,0
2017-07-24T03:20:32.832Z,0
2017-07-24T03:21:13.406Z,0
2017-07-24T03:21:53.971Z,0
2017-07-24T03:22:34.552Z,0
2017-07-24T03:23:15.120Z,0
2017-07-24T03:23:55.690Z,5
2017-07-24T03:24:36.269Z,5
2017-07-24T03:25:16.835Z,5
2017-07-24T03:25:57.403Z,5
2017-07-24T03:26:37.982Z,5
2017-07-24T03:27:18.546Z,5
2017-07-24T03:27:59.118Z,5
2017-07-24T03:28:39.685Z,5
2017-07-24T03:29:20.268Z,5
2017-07-24T03:30:00.852Z,5
2017-07-24T03:30:41.421Z,5
2017-07-24T03:31:21.995Z,5
2017-07-24T03:32:02.558Z,5
2017-07-24T03:32:43.127Z,5
2017-07-24T03:33:23.702Z,5
2017-07-24T03:34:04.266Z,5
2017-07-24T03:34:44.829Z,5
2017-07-24T03:35:25.406Z,10
2017-07-24T03:36:05.970Z,10
2017-07-24T03:36:46.559Z,10
2017-07-24T03:37:27.146Z,10
2017-07-24T03:38:07.708Z,10
2017-07-24T03:38:48.296Z,10
2017-07-24T03:39:28.866Z,10
2017-07-24T03:40:09.435Z,10
2017-07-24T03:40:50.002Z,10
2017-07-24T03:41:30.586Z,10
2017-07-24T03:42:11.170Z,10
2017-07-24T03:42:51.742Z,10
2017-07-24T03:43:32.310Z,10
2017-07-24T03:44:12.871Z,15
2017-07-24T03:44:53.442Z,15
2017-07-24T03:45:34.059Z,15
2017-07-24T03:46:14.654Z,15
2017-07-24T03:46:55.226Z,15
2017-07-24T03:47:35.810Z,15
2017-07-24T03:48:16.367Z,15
2017-07-24T03:48:57.000Z,15
2017-07-24T03:49:37.572Z,15
2017-07-24T03:50:18.127Z,15
2017-07-24T03:50:58.712Z,15
2017-07-24T03:51:39.286Z,15
2017-07-24T03:52:19.857Z,15
2017-07-24T03:53:00.437Z,15
2017-07-24T03:53:41.052Z,20
2017-07-24T03:54:21.632Z,20
2017-07-24T03:55:02.208Z,20
2017-07-24T03:55:42.774Z,20
2017-07-24T03:56:23.369Z,20
2017-07-24T03:57:03.936Z,25
2017-07-24T03:57:44.507Z,25
2017-07-24T03:58:25.080Z,25
2017-07-24T03:59:05.648Z,30
2017-07-24T03:59:46.216Z,30
2017-07-24T04:00:26.788Z,30
2017-07-24T04:01:07.357Z,30
2017-07-24T04:01:47.931Z,30
2017-07-24T04:02:28.522Z,30
2017-07-24T04:03:09.099Z,35
2017-07-24T04:03:49.670Z,35
2017-07-24T04:04:30.237Z,35
2017-07-24T04:05:10.810Z,35
2017-07-24T04:05:51.375Z,35
2017-07-24T04:06:31.948Z,40
2017-07-24T04:07:12.539Z,40
2017-07-24T04:07:53.115Z,40
2017-07-24T04:08:33.681Z,40
2017-07-24T04:09:14.248Z,40
2017-07-24T04:09:54.837Z,40
2017-07-24T04:10:35.433Z,40
2017-07-24T04:11:16.028Z,40
2017-07-24T04:11:56.605Z,40
2017-07-24T04:12:37.193Z,45
2017-07-24T04:13:17.759Z,45
2017-07-24T04:13:58.355Z,45
2017-07-24T04:14:38.926Z,45
2017-07-24T04:15:19.493Z,45
2017-07-24T04:16:00.063Z,50
2017-07-24T04:16:40.637Z,50
2017-07-24T04:17:21.215Z,50
2017-07-24T04:18:01.798Z,50
2017-07-24T04:18:42.375Z,50
2017-07-24T04:19:22.962Z,50
2017-07-24T04:20:03.532Z,50
2017-07-24T04:20:44.107Z,50
2017-07-24T04:21:24.676Z,50
2017-07-24T04:22:05.251Z,50
2017-07-24T04:22:45.815Z,50
2017-07-24T04:23:26.422Z,50
2017-07-24T04:24:07.006Z,50
2017-07-24T04:24:47.573Z,50
2017-07-24T04:25:28.141Z,55
2017-07-24T04:26:08.717Z,55
2017-07-24T04:26:49.283Z,55
2017-07-24T04:27:29.855Z,55
2017-07-24T04:28:10.429Z,60
2017-07-24T04:28:51.003Z,60
2017-07-24T04:29:31.573Z,60
2017-07-24T04:30:12.167Z,65
2017-07-24T04:30:52.732Z,70
2017-07-24T04:31:33.304Z,70
2017-07-24T04:32:13.872Z,75
2017-07-24T04:32:54.436Z,75
2017-07-24T04:33:35.005Z,75
2017-07-24T04:34:15.586Z,80
2017-07-24T04:34:56.159Z,85
2017-07-24T04:35:36.749Z,85
2017-07-24T04:36:17.341Z,85
2017-07-24T04:36:57.931Z,85
2017-07-24T04:37:38.507Z,85
2017-07-24T04:38:19.079Z,85
2017-07-24T04:38:59.644Z,85
2017-07-24T04:39:40.237Z,85
2017-07-24T04:40:20.808Z,85
2017-07-24T04:41:01.396Z,85
2017-07-24T04:41:42.009Z,85
2017-07-24T04:42:22.595Z,85
2017-07-24T04:43:03.188Z,80
2017-07-24T04:43:43.775Z,80
2017-07-24T04:44:24.354Z,80
2017-07-24T04:45:04.947Z,80
2017-07-24T04:45:45.519Z,80
2017-07-24T04:46:26.098Z,80
2017-07-24T04:47:06.664Z,85
2017-07-24T04:47:47.250Z,85
2017-07-24T04:48:27.828Z,85
2017-07-24T04:49:08.418Z,85
2017-07-24T04:49:49.008Z,85
2017-07-24T04:50:29.574Z,85
2017-07-24T04:51:10.145Z,80
2017-07-24T04:51:50.751Z,80
2017-07-24T04:52:31.315Z,85
2017-07-24T04:53:11.924Z,85
2017-07-24T04:53:52.495Z,85
2017-07-24T04:54:33.061Z,90
2017-07-24T04:55:13.632Z,95
2017-07-24T04:55:54.189Z,95
2017-07-24T04:56:34.750Z,95
2017-07-24T04:57:15.319Z,100
2017-07-24T04:57:55.875Z,100
2017-07-24T04:58:36.450Z,100
2017-07-24T04:59:17.036Z,95
2017-07-24T04:59:57.597Z,95
2017-07-24T05:00:38.181Z,95
2017-07-24T05:01:18.760Z,95
2017-07-24T05:01:59.355Z,95
2017-07-24T05:02:39.972Z,95
2017-07-24T05:03:20.507Z,90
2017-07-24T05:04:01.102Z,90
2017-07-24T05:04:41.716Z,85
2017-07-24T05:05:22.305Z,90
2017-07-24T05:06:02.886Z,90
2017-07-24T05:06:43.487Z,90
2017-07-24T05:07:24.055Z,95
2017-07-24T05:08:04.640Z,95
2017-07-24T05:08:45.276Z,95
2017-07-24T05:09:25.870Z,95
2017-07-24T05:10:06.449Z,95
2017-07-24T05:10:47.008Z,100
2017-07-24T05:11:27.580Z,100
2017-07-24T05:12:08.163Z,100
2017-07-24T05:12:48.735Z,105
2017-07-24T05:13:29.308Z,105
2017-07-24T05:14:09.876Z,110
2017-07-24T05:14:50.451Z,110
2017-07-24T05:15:31.035Z,115
2017-07-24T05:16:11.629Z,120
2017-07-24T05:16:52.202Z,125
2017-07-24T05:17:32.770Z,130
2017-07-24T05:18:13.361Z,130
2017-07-24T05:18:53.941Z,135
2017-07-24T05:19:34.518Z,135
2017-07-24T05:20:15.135Z,135
2017-07-24T05:20:55.724Z,135
2017-07-24T05:21:36.313Z,130
2017-07-24T05:22:16.894Z,135
2017-07-24T05:22:57.470Z,135
2017-07-24T05:23:38.068Z,140
2017-07-24T05:24:18.657Z,145
2017-07-24T05:24:59.238Z,140
2017-07-24T05:25:39.833Z,135
2017-07-24T05:26:20.424Z,135
2017-07-24T05:27:00.990Z,135
2017-07-24T05:27:41.570Z,135
2017-07-24T05:28:22.167Z,135
2017-07-24T05:29:02.772Z,140
2017-07-24T05:29:43.333Z,140
2017-07-24T05:30:23.964Z,135
2017-07-24T05:31:04.535Z,135
2017-07-24T05:31:45.104Z,135
2017-07-24T05:32:25.743Z,135
2017-07-24T05:33:06.312Z,135
2017-07-24T05:33:46.882Z,135
2017-07-24T05:34:27.457Z,135
2017-07-24T05:35:08.038Z,135
2017-07-24T05:35:48.612Z,135
2017-07-24T05:36:29.207Z,140
2017-07-24T05:37:09.776Z,145
2017-07-24T05:37:50.405Z,145
2017-07-24T05:38:30.989Z,145
2017-07-24T05:39:11.555Z,150
2017-07-24T05:39:52.824Z,165
2017-07-24T05:40:33.392Z,165
2017-07-24T05:41:13.959Z,175
2017-07-24T05:41:54.534Z,190
2017-07-24T05:42:35.126Z,190
2017-07-24T05:43:15.695Z,185
2017-07-24T05:43:56.277Z,180
2017-07-24T05:44:36.883Z,180
2017-07-24T05:45:17.441Z,160
2017-07-24T05:45:58.014Z,150
2017-07-24T05:46:38.579Z,160
2017-07-24T05:47:19.176Z,170
2017-07-24T05:47:59.772Z,180
2017-07-24T05:48:40.325Z,195
2017-07-24T05:49:20.921Z,200
2017-07-24T05:50:01.484Z,230
2017-07-24T05:50:42.080Z,235
2017-07-24T05:51:22.665Z,220
2017-07-24T05:52:03.473Z,235
2017-07-24T05:52:43.932Z,315
2017-07-24T05:53:24.667Z,310
2017-07-24T05:54:05.325Z,305
2017-07-24T05:54:46.564Z,255
2017-07-24T05:55:27.210Z,270
2017-07-24T05:56:07.792Z,315
2017-07-24T05:56:48.389Z,330
2017-07-24T05:57:28.952Z,415
2017-07-24T05:58:09.572Z,485
2017-07-24T05:58:50.361Z,545
2017-07-24T05:59:30.927Z,590
2017-07-24T06:00:11.494Z,545
2017-07-24T06:00:52.054Z,685
2017-07-24T06:01:32.642Z,635
2017-07-24T06:02:13.251Z,580
2017-07-24T06:02:53.849Z,715
2017-07-24T06:03:34.424Z,725
2017-07-24T06:04:14.991Z,745
2017-07-24T06:04:55.565Z,850
2017-07-24T06:05:36.150Z,920
2017-07-24T06:06:16.747Z,1015
2017-07-24T06:06:57.308Z,1130
2017-07-24T06:07:37.907Z,1215
2017-07-24T06:08:18.499Z,1165
2017-07-24T06:08:59.071Z,960
2017-07-24T06:09:39.658Z,745
2017-07-24T06:10:20.248Z,1400
2017-07-24T06:11:00.869Z,1385
2017-07-24T06:11:41.468Z,1280
2017-07-24T06:12:22.044Z,1325
2017-07-24T06:13:02.616Z,1310
2017-07-24T06:13:43.199Z,1100
2017-07-24T06:14:23.780Z,650
2017-07-24T06:15:04.374Z,865
2017-07-24T06:15:45.024Z,680
2017-07-24T06:16:25.970Z,560
2017-07-24T06:17:06.560Z,610
2017-07-24T06:17:47.166Z,585
2017-07-24T06:18:27.767Z,620
2017-07-24T06:19:08.757Z,600
2017-07-24T06:19:49.376Z,515
2017-07-24T06:20:29.960Z,530
2017-07-24T06:21:10.574Z,510
2017-07-24T06:21:51.152Z,405
2017-07-24T06:22:31.728Z,345
2017-07-24T06:23:12.330Z,370
2017-07-24T06:23:52.899Z,360
2017-07-24T06:24:33.475Z,390
2017-07-24T06:25:14.062Z,435
2017-07-24T06:25:54.685Z,470
2017-07-24T06:26:35.822Z,400
2017-07-24T06:27:16.531Z,425
2017-07-24T06:27:57.515Z,435
2017-07-24T06:28:39.009Z,460
2017-07-24T06:29:19.613Z,455
2017-07-24T06:30:00.293Z,515
2017-07-24T06:30:41.673Z,520
2017-07-24T06:31:22.255Z,550
2017-07-24T06:32:02.830Z,545
2017-07-24T06:32:43.429Z,535
2017-07-24T06:33:24.102Z,575
2017-07-24T06:34:05.360Z,515
2017-07-24T06:34:45.984Z,445
2017-07-24T06:35:26.565Z,505
2017-07-24T06:36:07.213Z,555
2017-07-24T06:36:47.792Z,490
2017-07-24T06:37:28.362Z,440
2017-07-24T06:38:09.096Z,465
2017-07-24T06:38:49.704Z,505
2017-07-24T06:39:30.303Z,510
2017-07-24T06:40:10.928Z,560
2017-07-24T06:40:51.512Z,520
2017-07-24T06:41:32.085Z,535
2017-07-24T06:42:12.693Z,545
2017-07-24T06:42:53.287Z,605
2017-07-24T06:43:34.049Z,625
2017-07-24T06:44:14.623Z,670
2017-07-24T06:44:55.198Z,590
2017-07-24T06:45:35.819Z,685
2017-07-24T06:46:16.415Z,690
2017-07-24T06:46:57.005Z,645
2017-07-24T06:47:37.571Z,690
2017-07-24T06:48:18.150Z,740
2017-07-24T06:48:58.738Z,695
2017-07-24T06:49:39.319Z,645
2017-07-24T06:50:19.899Z,585
2017-07-24T06:51:00.474Z,600
2017-07-24T06:51:41.052Z,625
2017-07-24T06:52:21.654Z,485
2017-07-24T06:53:02.226Z,665
2017-07-24T06:53:42.808Z,635
2017-07-24T06:54:23.384Z,820
2017-07-24T06:55:03.964Z,790
2017-07-24T06:55:44.531Z,830
2017-07-24T06:56:25.135Z,855
2017-07-24T06:57:05.711Z,845
2017-07-24T06:57:47.088Z,925
2017-07-24T06:58:27.683Z,930
2017-07-24T06:59:08.277Z,925
2017-07-24T06:59:48.852Z,880
2017-07-24T07:00:29.434Z,1155
2017-07-24T07:01:10.023Z,1175
2017-07-24T07:01:50.594Z,1280
2017-07-24T07:02:31.170Z,1315
2017-07-24T07:03:11.782Z,1090
2017-07-24T07:03:52.389Z,1265
2017-07-24T07:04:32.943Z,1235
2017-07-24T07:05:13.529Z,1265
2017-07-24T07:05:54.122Z,1255
2017-07-24T07:06:34.708Z,1205
2017-07-24T07:07:15.326Z,1345
2017-07-24T07:07:55.914Z,1360
2017-07-24T07:08:36.518Z,1340
2017-07-24T07:09:17.096Z,1170
2017-07-24T07:09:57.687Z,965
2017-07-24T07:10:38.262Z,1205
2017-07-24T07:11:18.869Z,1130
2017-07-24T07:11:59.465Z,1205
2017-07-24T07:12:40.038Z,1220
2017-07-24T07:13:20.640Z,1160
2017-07-24T07:14:01.258Z,1105
2017-07-24T07:14:41.832Z,1100
2017-07-24T07:15:22.455Z,1105
2017-07-24T07:16:03.055Z,1025
2017-07-24T07:16:43.646Z,1000
2017-07-24T07:17:24.248Z,910
2017-07-24T07:18:04.846Z,845
2017-07-24T07:18:45.468Z,725
2017-07-24T07:19:26.032Z,705
2017-07-24T07:20:06.606Z,665
2017-07-24T07:20:47.187Z,610
2017-07-24T07:21:27.765Z,595
2017-07-24T07:22:08.390Z,610
2017-07-24T07:22:49.003Z,590
2017-07-24T07:23:29.585Z,580
2017-07-24T07:24:10.210Z,570
2017-07-24T07:24:50.785Z,545
2017-07-24T07:25:31.397Z,515
2017-07-24T07:26:11.984Z,475
2017-07-24T07:26:52.560Z,475
2017-07-24T07:27:33.142Z,490
2017-07-24T07:28:13.715Z,495
2017-07-24T07:28:54.299Z,490
2017-07-24T07:29:34.883Z,490
2017-07-24T07:30:15.456Z,460
2017-07-24T07:30:56.079Z,480
2017-07-24T07:31:36.675Z,490
2017-07-24T07:32:17.270Z,490
2017-07-24T07:32:58.051Z,490
2017-07-24T07:33:39.032Z,495
2017-07-24T07:34:20.335Z,525
2017-07-24T07:35:00.955Z,545
2017-07-24T07:35:41.549Z,545
2017-07-24T07:36:22.145Z,540
2017-07-24T07:37:02.720Z,560
2017-07-24T07:37:43.303Z,555
2017-07-24T07:38:23.901Z,540
2017-07-24T07:39:04.476Z,555
2017-07-24T07:39:45.053Z,565
2017-07-24T07:40:25.671Z,555
2017-07-24T07:41:06.243Z,540
2017-07-24T07:41:46.818Z,530
2017-07-24T07:42:27.523Z,530
2017-07-24T07:43:08.126Z,520
2017-07-24T07:43:48.734Z,515
2017-07-24T07:44:29.326Z,495
2017-07-24T07:45:09.921Z,490
2017-07-24T07:45:50.568Z,490
2017-07-24T07:46:31.145Z,490
2017-07-24T07:47:11.725Z,495
2017-07-24T07:47:52.352Z,505
2017-07-24T07:48:32.953Z,525
2017-07-24T07:49:13.596Z,525
2017-07-24T07:49:54.158Z,500
2017-07-24T07:50:34.741Z,495
2017-07-24T07:51:15.664Z,470
2017-07-24T07:51:56.477Z,455
2017-07-24T07:52:37.154Z,495
2017-07-24T07:53:17.751Z,530
2017-07-24T07:53:58.326Z,540
2017-07-24T07:54:38.908Z,530
2017-07-24T07:55:19.530Z,510
2017-07-24T07:56:00.398Z,500
2017-07-24T07:56:41.355Z,525
2017-07-24T07:57:22.401Z,525
2017-07-24T07:58:03.025Z,525
2017-07-24T07:58:43.616Z,535
2017-07-24T07:59:24.308Z,495
2017-07-24T08:00:05.291Z,500
2017-07-24T08:00:46.213Z,470
2017-07-24T08:01:27.045Z,520
2017-07-24T08:02:09.252Z,520
2017-07-24T08:02:50.290Z,495
2017-07-24T08:03:30.877Z,500
2017-07-24T08:04:11.472Z,475
2017-07-24T08:04:52.058Z,480
2017-07-24T08:05:32.644Z,470
2017-07-24T08:06:13.696Z,460
2017-07-24T08:06:55.066Z,455
2017-07-24T08:07:36.063Z,425
2017-07-24T08:08:16.965Z,385
2017-07-24T08:08:57.873Z,365
2017-07-24T08:09:38.564Z,375
2017-07-24T08:10:19.131Z,355
2017-07-24T08:10:59.721Z,335
2017-07-24T08:11:40.473Z,370
2017-07-24T08:12:21.648Z,365
2017-07-24T08:13:02.315Z,360
2017-07-24T08:13:43.444Z,365
2017-07-24T08:14:24.042Z,365
2017-07-24T08:15:04.617Z,360
2017-07-24T08:15:45.188Z,360
2017-07-24T08:16:25.774Z,355
2017-07-24T08:17:06.350Z,350
2017-07-24T08:17:46.921Z,345
2017-07-24T08:18:27.543Z,345
2017-07-24T08:19:08.138Z,345
2017-07-24T08:19:48.731Z,345
2017-07-24T08:20:29.317Z,345
2017-07-24T08:21:09.945Z,345
2017-07-24T08:21:50.516Z,345
2017-07-24T08:22:31.154Z,345
2017-07-24T08:23:11.793Z,340
2017-07-24T08:23:53.057Z,340
2017-07-24T08:24:33.689Z,335
2017-07-24T08:25:15.563Z,335
2017-07-24T08:25:57.897Z,330
2017-07-24T08:26:38.782Z,330
2017-07-24T08:27:20.113Z,325
2017-07-24T08:28:00.710Z,325
2017-07-24T08:28:41.285Z,320
2017-07-24T08:29:23.287Z,315
2017-07-24T08:30:04.284Z,305
2017-07-24T08:30:45.500Z,300
2017-07-24T08:31:26.844Z,295
2017-07-24T08:32:08.834Z,290
2017-07-24T08:32:49.739Z,275
2017-07-24T08:33:30.651Z,275
2017-07-24T08:34:13.786Z,280
2017-07-24T08:34:54.915Z,280
2017-07-24T08:35:35.891Z,290
2017-07-24T08:36:17.111Z,285
2017-07-24T08:36:58.547Z,215
2017-07-24T08:37:39.130Z,165
2017-07-24T08:38:19.732Z,265
2017-07-24T08:39:00.371Z,275
2017-07-24T08:39:41.307Z,270
2017-07-24T08:40:22.362Z,255
2017-07-24T08:41:03.295Z,160
2017-07-24T08:41:44.015Z,155
2017-07-24T08:42:24.597Z,160
2017-07-24T08:43:05.179Z,160
2017-07-24T08:43:46.030Z,155
2017-07-24T08:44:26.983Z,155
2017-07-24T08:45:07.955Z,155
2017-07-24T08:45:48.941Z,160
2017-07-24T08:46:29.988Z,230
2017-07-24T08:47:11.056Z,245
2017-07-24T08:47:52.177Z,185
2017-07-24T08:48:32.926Z,180
2017-07-24T08:49:13.942Z,240
2017-07-24T08:49:54.864Z,180
2017-07-24T08:50:35.677Z,175
2017-07-24T08:51:16.576Z,180
2017-07-24T08:51:57.527Z,175
2017-07-24T08:52:38.543Z,175
2017-07-24T08:53:19.562Z,190
2017-07-24T08:54:00.452Z,230
2017-07-24T08:54:41.417Z,240
2017-07-24T08:55:22.323Z,245
2017-07-24T08:56:03.294Z,180
2017-07-24T08:56:44.281Z,175
2017-07-24T08:57:25.289Z,175
2017-07-24T08:58:06.296Z,175
2017-07-24T08:58:47.166Z,175
2017-07-24T08:59:28.144Z,215
2017-07-24T09:00:09.097Z,210
2017-07-24T09:00:49.681Z,210
2017-07-24T09:01:30.262Z,210
2017-07-24T09:02:11.013Z,210
2017-07-24T09:02:51.573Z,210
2017-07-24T09:03:32.153Z,210
2017-07-24T09:04:12.811Z,215
2017-07-24T09:04:53.411Z,215
2017-07-24T09:05:33.994Z,190
2017-07-24T09:06:14.574Z,205
2017-07-24T09:06:55.158Z,210
2017-07-24T09:07:35.754Z,200
2017-07-24T09:08:16.337Z,200
2017-07-24T09:08:56.936Z,175
2017-07-24T09:09:37.506Z,175
2017-07-24T09:10:18.084Z,205
2017-07-24T09:10:58.671Z,205
2017-07-24T09:11:39.258Z,205
2017-07-24T09:12:21.090Z,200
2017-07-24T09:13:02.606Z,205
2017-07-24T09:13:43.864Z,185
2017-07-24T09:14:24.450Z,160
2017-07-24T09:15:05.032Z,165
2017-07-24T09:15:45.680Z,165
2017-07-24T09:16:26.282Z,185
2017-07-24T09:17:06.879Z,190
2017-07-24T09:17:47.456Z,190
2017-07-24T09:18:28.040Z,190
2017-07-24T09:19:08.619Z,190
2017-07-24T09:19:49.230Z,185
2017-07-24T09:20:29.791Z,160
2017-07-24T09:21:10.384Z,175
2017-07-24T09:21:51.679Z,170
2017-07-24T09:22:32.352Z,175
2017-07-24T09:23:12.929Z,175
2017-07-24T09:23:53.525Z,175
2017-07-24T09:24:34.115Z,180
2017-07-24T09:25:14.688Z,180
2017-07-24T09:25:55.283Z,180
2017-07-24T09:26:35.834Z,180
2017-07-24T09:27:16.405Z,185
2017-07-24T09:27:56.971Z,180
2017-07-24T09:28:37.565Z,180
2017-07-24T09:29:18.140Z,175
2017-07-24T09:29:58.711Z,175
2017-07-24T09:30:39.294Z,175
2017-07-24T09:31:19.881Z,180
2017-07-24T09:32:00.460Z,180
2017-07-24T09:32:41.039Z,185
2017-07-24T09:33:21.615Z,185
2017-07-24T09:34:02.213Z,185
2017-07-24T09:34:42.807Z,185
2017-07-24T09:35:23.403Z,185
2017-07-24T09:36:03.977Z,185
2017-07-24T09:36:44.561Z,185